createdAt,value
2023-09-02T00:01:57.409Z,98575.41
2023-09-02T00:04:23.973Z,98578.72
2023-09-02T00:06:50.493Z,98573.88
2023-09-02T00:09:17.031Z,98579.09
2023-09-02T00:11:43.609Z,98576.66
2023-09-02T00:14:10.132Z,98570.66
2023-09-02T00:16:36.629Z,98576.56
2023-09-02T00:19:04.825Z,98569.09
2023-09-02T00:21:33.946Z,98572.75
2023-09-02T00:24:04.615Z,98571.97
2023-09-02T00:26:32.152Z,98576.13
2023-09-02T00:28:59.626Z,98570.84
2023-09-02T00:31:26.265Z,98568.38
2023-09-02T00:33:53.781Z,98570.84
2023-09-02T00:36:20.718Z,98568.06
2023-09-02T00:38:47.389Z,98569.13
2023-09-02T00:41:24.539Z,98569.75
2023-09-02T00:43:51.290Z,98568.97
2023-09-02T00:46:17.973Z,98573.44
2023-09-02T00:48:44.545Z,98572.31
2023-09-02T00:51:11.072Z,98570.22
2023-09-02T00:53:37.583Z,98567.81
2023-09-02T00:56:05.092Z,98572.06
2023-09-02T00:58:32.313Z,98576.25
2023-09-02T01:00:59.533Z,98574.16
2023-09-02T01:03:26.320Z,98576.91
2023-09-02T01:05:53.875Z,98578.63
2023-09-02T01:08:20.537Z,98578.56
2023-09-02T01:10:48.273Z,98573.00
2023-09-02T01:13:14.976Z,98569.19
2023-09-02T01:15:41.527Z,98583.94
2023-09-02T01:18:08.146Z,98576.88
2023-09-02T01:20:55.647Z,98592.00
2023-09-02T01:23:34.155Z,98579.69
2023-09-02T01:26:20.013Z,98587.88
2023-09-02T01:28:47.402Z,98584.38
2023-09-02T01:31:17.734Z,98590.50
2023-09-02T01:33:48.287Z,98593.09
2023-09-02T01:36:18.362Z,98589.88
2023-09-02T01:38:45.711Z,98590.19
2023-09-02T01:41:14.061Z,98594.50
2023-09-02T01:43:41.112Z,98597.03
2023-09-02T01:46:09.275Z,98592.56
2023-09-02T01:48:36.349Z,98589.84
2023-09-02T01:51:03.700Z,98582.78
2023-09-02T01:53:30.857Z,98587.53
2023-09-02T01:55:58.453Z,98593.09
2023-09-02T01:58:25.821Z,98595.63
2023-09-02T02:00:52.384Z,98596.06
2023-09-02T02:03:28.472Z,98597.06
2023-09-02T02:05:55.145Z,98600.88
2023-09-02T02:08:31.960Z,98602.63
2023-09-02T02:11:02.621Z,98604.03
2023-09-02T02:13:29.307Z,98601.59
2023-09-02T02:15:56.206Z,98606.13
2023-09-02T02:18:22.790Z,98609.72
2023-09-02T02:20:59.890Z,98610.72
2023-09-02T02:23:26.386Z,98610.28
2023-09-02T02:25:53.079Z,98614.84
2023-09-02T02:28:19.627Z,98619.19
2023-09-02T02:30:46.329Z,98631.59
2023-09-02T02:33:12.857Z,98630.09
2023-09-02T02:35:39.718Z,98626.75
2023-09-02T02:38:06.266Z,98625.03
2023-09-02T02:40:32.952Z,98624.16
2023-09-02T02:42:59.540Z,98622.09
2023-09-02T02:45:26.098Z,98619.34
2023-09-02T02:47:52.612Z,98622.00
2023-09-02T02:50:19.152Z,98616.06
2023-09-02T02:52:45.643Z,98619.78
2023-09-02T02:55:13.113Z,98625.88
2023-09-02T02:57:40.412Z,98623.16
2023-09-02T03:00:10.045Z,98622.94
2023-09-02T03:02:36.850Z,98625.44
2023-09-02T03:05:03.616Z,98626.19
2023-09-02T03:07:30.161Z,98629.38
2023-09-02T03:09:56.791Z,98626.66
2023-09-02T03:12:23.467Z,98623.66
2023-09-02T03:14:50.298Z,98624.22
2023-09-02T03:17:22.080Z,98626.50
2023-09-02T03:19:49.439Z,98630.91
2023-09-02T03:22:15.943Z,98634.47
2023-09-02T03:24:42.744Z,98635.41
2023-09-02T03:27:09.450Z,98637.81
2023-09-02T03:29:35.942Z,98635.41
2023-09-02T03:32:02.587Z,98631.75
2023-09-02T03:34:29.086Z,98632.13
2023-09-02T03:36:55.601Z,98637.75
2023-09-02T03:39:22.143Z,98635.16
2023-09-02T03:41:48.639Z,98636.16
2023-09-02T03:44:15.355Z,98631.41
2023-09-02T03:46:41.833Z,98627.88
2023-09-02T03:49:08.441Z,98626.88
2023-09-02T03:51:34.980Z,98624.06
2023-09-02T03:54:01.468Z,98620.72
2023-09-02T03:56:27.976Z,98618.78
2023-09-02T03:58:55.732Z,98629.28
2023-09-02T04:01:22.348Z,98621.91
2023-09-02T04:03:48.871Z,98618.56
2023-09-02T04:06:15.447Z,98634.28
2023-09-02T04:08:41.971Z,98625.22
2023-09-02T04:11:08.604Z,98634.06
2023-09-02T04:13:35.160Z,98618.97
2023-09-02T04:16:02.087Z,98629.97
2023-09-02T04:18:28.898Z,98638.19
2023-09-02T04:20:56.135Z,98637.25
2023-09-02T04:23:23.321Z,98640.72
2023-09-02T04:25:54.802Z,98646.84
2023-09-02T04:28:21.446Z,98652.75
2023-09-02T04:30:49.127Z,98653.03
2023-09-02T04:33:17.716Z,98646.22
2023-09-02T04:35:46.423Z,98654.22
2023-09-02T04:38:13.339Z,98656.09
2023-09-02T04:40:41.381Z,98660.72
2023-09-02T04:43:09.933Z,98656.81
2023-09-02T04:45:37.862Z,98650.59
2023-09-02T04:48:05.524Z,98655.13
2023-09-02T04:50:33.698Z,98650.16
2023-09-02T04:53:01.075Z,98657.84
2023-09-02T04:55:28.479Z,98664.44
2023-09-02T04:57:56.408Z,98661.16
2023-09-02T05:00:27.909Z,98669.84
2023-09-02T05:02:54.539Z,98662.72
2023-09-02T05:05:23.567Z,98674.03
2023-09-02T05:07:50.526Z,98674.38
2023-09-02T05:10:17.299Z,98669.31
2023-09-02T05:12:44.026Z,98678.94
2023-09-02T05:15:10.992Z,98681.06
2023-09-02T05:17:37.754Z,98684.53
2023-09-02T05:20:05.661Z,98684.69
2023-09-02T05:22:32.870Z,98682.13
2023-09-02T05:24:59.637Z,98686.53
2023-09-02T05:27:26.358Z,98674.84
2023-09-02T05:29:52.880Z,98680.00
2023-09-02T05:32:19.504Z,98682.00
2023-09-02T05:34:46.335Z,98680.94
2023-09-02T05:37:13.691Z,98684.59
2023-09-02T05:39:40.716Z,98682.63
2023-09-02T05:42:07.561Z,98685.34
2023-09-02T05:44:37.442Z,98690.06
2023-09-02T05:47:04.339Z,98685.59
2023-09-02T05:49:30.936Z,98690.44
2023-09-02T05:51:57.464Z,98684.28
2023-09-02T05:54:24.062Z,98691.78
2023-09-02T05:56:50.659Z,98698.50
2023-09-02T05:59:17.215Z,98696.88
2023-09-02T06:01:44.565Z,98704.50
2023-09-02T06:04:11.173Z,98704.28
2023-09-02T06:06:37.776Z,98707.06
2023-09-02T06:09:04.276Z,98709.81
2023-09-02T06:11:32.460Z,98716.75
2023-09-02T06:13:58.975Z,98716.25
2023-09-02T06:16:25.480Z,98723.66
2023-09-02T06:18:51.967Z,98730.34
2023-09-02T06:21:18.595Z,98725.97
2023-09-02T06:23:46.197Z,98730.56
2023-09-02T06:26:13.506Z,98735.81
2023-09-02T06:28:41.252Z,98738.31
2023-09-02T06:31:13.285Z,98745.91
2023-09-02T06:33:39.824Z,98748.03
2023-09-02T06:36:14.200Z,98743.88
2023-09-02T06:38:40.753Z,98744.19
2023-09-02T06:41:14.640Z,98741.78
2023-09-02T06:43:41.542Z,98745.31
2023-09-02T06:46:21.401Z,98745.47
2023-09-02T06:48:48.728Z,98748.38
2023-09-02T06:51:15.686Z,98748.69
2023-09-02T06:53:42.984Z,98750.69
2023-09-02T06:56:10.621Z,98754.56
2023-09-02T06:58:40.077Z,98755.66
2023-09-02T07:01:07.081Z,98752.84
2023-09-02T07:03:34.227Z,98756.31
2023-09-02T07:06:08.137Z,98752.97
2023-09-02T07:08:35.231Z,98762.69
2023-09-02T07:11:01.856Z,98754.91
2023-09-02T07:13:28.469Z,98759.59
2023-09-02T07:16:04.925Z,98757.75
2023-09-02T07:18:32.048Z,98759.97
2023-09-02T07:21:03.351Z,98758.84
2023-09-02T07:23:31.119Z,98764.19
2023-09-02T07:26:02.600Z,98766.19
2023-09-02T07:28:31.301Z,98764.03
2023-09-02T07:31:06.736Z,98755.72
2023-09-02T07:33:33.692Z,98759.28
2023-09-02T07:36:07.532Z,98757.25
2023-09-02T07:38:34.100Z,98770.06
2023-09-02T07:41:00.604Z,98763.09
2023-09-02T07:43:27.073Z,98768.88
2023-09-02T07:45:53.741Z,98768.38
2023-09-02T07:48:20.292Z,98774.03
2023-09-02T07:50:46.768Z,98762.06
2023-09-02T07:53:14.196Z,98770.16
2023-09-02T07:55:41.299Z,98779.28
2023-09-02T07:58:08.257Z,98779.31
2023-09-02T08:00:35.982Z,98773.41
2023-09-02T08:03:03.400Z,98771.19
2023-09-02T08:05:30.196Z,98774.00
2023-09-02T08:07:57.718Z,98774.00
2023-09-02T08:10:24.692Z,98772.81
2023-09-02T08:12:51.240Z,98763.84
2023-09-02T08:15:17.831Z,98768.06
2023-09-02T08:17:45.058Z,98763.84
2023-09-02T08:20:11.977Z,98769.88
2023-09-02T08:22:40.656Z,98768.22
2023-09-02T08:25:08.124Z,98766.53
2023-09-02T08:27:34.851Z,98768.19
2023-09-02T08:30:01.547Z,98768.63
2023-09-02T08:32:32.032Z,98764.88
2023-09-02T08:34:58.785Z,98768.78
2023-09-02T08:37:25.284Z,98766.84
2023-09-02T08:39:52.348Z,98771.06
2023-09-02T08:42:21.510Z,98766.22
2023-09-02T08:44:49.500Z,98766.19
2023-09-02T08:47:18.168Z,98775.94
2023-09-02T08:49:44.901Z,98776.41
2023-09-02T08:52:12.276Z,98775.97
2023-09-02T08:54:40.551Z,98772.66
2023-09-02T08:57:07.607Z,98768.22
2023-09-02T08:59:34.745Z,98769.94
2023-09-02T09:02:01.930Z,98769.94
2023-09-02T09:04:34.744Z,98763.97
2023-09-02T09:07:05.719Z,98772.09
2023-09-02T09:09:37.882Z,98766.31
2023-09-02T09:12:04.795Z,98766.28
2023-09-02T09:14:37.777Z,98760.22
2023-09-02T09:17:05.069Z,98767.00
2023-09-02T09:19:31.955Z,98767.78
2023-09-02T09:21:58.627Z,98761.03
2023-09-02T09:24:25.530Z,98759.63
2023-09-02T09:26:52.354Z,98772.41
2023-09-02T09:29:22.334Z,98757.69
2023-09-02T09:31:51.725Z,98760.59
2023-09-02T09:34:18.242Z,98758.50
2023-09-02T09:36:57.623Z,98762.56
2023-09-02T09:39:38.971Z,98765.38
2023-09-02T09:42:06.408Z,98759.81
2023-09-02T09:44:33.091Z,98757.72
2023-09-02T09:46:59.569Z,98757.41
2023-09-02T09:49:28.437Z,98759.38
2023-09-02T09:52:01.088Z,98751.88
2023-09-02T09:54:41.031Z,98749.91
2023-09-02T09:57:09.470Z,98742.59
2023-09-02T09:59:37.164Z,98744.13
2023-09-02T10:02:05.599Z,98741.53
2023-09-02T10:04:33.604Z,98739.84
2023-09-02T10:07:05.147Z,98736.38
2023-09-02T10:09:45.330Z,98742.75
2023-09-02T10:12:17.151Z,98737.91
2023-09-02T10:14:45.671Z,98739.78
2023-09-02T10:17:12.988Z,98735.09
2023-09-02T10:19:40.255Z,98730.66
2023-09-02T10:22:07.601Z,98721.72
2023-09-02T10:24:38.300Z,98726.25
2023-09-02T10:27:15.299Z,98713.34
2023-09-02T10:29:44.811Z,98722.53
2023-09-02T10:32:13.725Z,98718.84
2023-09-02T10:34:40.265Z,98717.91
2023-09-02T10:37:14.034Z,98712.72
2023-09-02T10:39:58.830Z,98710.13
2023-09-02T10:42:27.784Z,98707.47
2023-09-02T10:44:55.189Z,98715.09
2023-09-02T10:47:22.312Z,98709.53
2023-09-02T10:49:50.230Z,98713.00
2023-09-02T10:52:17.474Z,98705.97
2023-09-02T10:55:02.978Z,98704.44
2023-09-02T10:57:33.652Z,98708.97
2023-09-02T11:00:17.050Z,98713.53
2023-09-02T11:02:45.703Z,98711.72
2023-09-02T11:05:13.070Z,98713.66
2023-09-02T11:07:41.530Z,98709.19
2023-09-02T11:10:10.128Z,98714.50
2023-09-02T11:13:02.097Z,98708.47
2023-09-02T11:15:29.301Z,98714.06
2023-09-02T11:17:56.211Z,98712.91
2023-09-02T11:20:27.003Z,98705.84
2023-09-02T11:23:00.640Z,98712.47
2023-09-02T11:25:38.574Z,98716.06
2023-09-02T11:28:20.459Z,98715.84
2023-09-02T11:31:02.403Z,98725.13
2023-09-02T11:33:29.051Z,98719.81
2023-09-02T11:36:04.570Z,98717.59
2023-09-02T11:38:33.043Z,98722.75
2023-09-02T11:40:59.640Z,98725.88
2023-09-02T11:43:29.643Z,98730.22
2023-09-02T11:45:56.241Z,98728.75
2023-09-02T11:48:25.992Z,98727.44
2023-09-02T11:50:52.712Z,98729.94
2023-09-02T11:53:19.625Z,98727.09
2023-09-02T11:55:46.409Z,98726.56
2023-09-02T11:58:17.446Z,98727.25
2023-09-02T12:00:44.700Z,98732.75
2023-09-02T12:03:11.490Z,98722.78
2023-09-02T12:05:49.596Z,98722.72
2023-09-02T12:08:17.665Z,98723.34
2023-09-02T12:10:46.776Z,98721.66
2023-09-02T12:13:14.189Z,98724.75
2023-09-02T12:15:40.819Z,98716.41
2023-09-02T12:18:08.057Z,98723.00
2023-09-02T12:20:34.764Z,98727.31
2023-09-02T12:23:03.197Z,98734.13
2023-09-02T12:25:30.917Z,98737.34
2023-09-02T12:28:14.514Z,98733.91
2023-09-02T12:30:42.206Z,98729.97
2023-09-02T12:33:08.774Z,98729.88
2023-09-02T12:35:35.546Z,98726.31
2023-09-02T12:38:06.856Z,98722.53
2023-09-02T12:40:34.207Z,98728.69
2023-09-02T12:43:01.818Z,98735.75
2023-09-02T12:45:29.576Z,98735.31
2023-09-02T12:48:00.217Z,98735.53
2023-09-02T12:50:28.338Z,98729.38
2023-09-02T12:52:59.995Z,98729.72
2023-09-02T12:55:26.745Z,98723.47
2023-09-02T12:57:54.088Z,98721.22
2023-09-02T13:00:20.912Z,98710.88
2023-09-02T13:02:49.009Z,98719.25
2023-09-02T13:05:16.524Z,98723.56
2023-09-02T13:07:43.243Z,98731.06
2023-09-02T13:10:11.638Z,98721.97
2023-09-02T13:12:39.822Z,98724.31
2023-09-02T13:15:07.972Z,98714.97
2023-09-02T13:17:35.201Z,98719.09
2023-09-02T13:20:03.386Z,98727.34
2023-09-02T13:22:30.379Z,98720.13
2023-09-02T13:24:57.087Z,98718.59
2023-09-02T13:27:28.529Z,98728.53
2023-09-02T13:29:55.463Z,98728.22
2023-09-02T13:32:27.235Z,98725.16
2023-09-02T13:35:19.959Z,98730.91
2023-09-02T13:37:49.063Z,98731.34
2023-09-02T13:40:15.621Z,98737.41
2023-09-02T13:42:43.667Z,98732.06
2023-09-02T13:45:16.276Z,98742.50
2023-09-02T13:47:46.606Z,98741.66
2023-09-02T13:50:14.624Z,98739.69
2023-09-02T13:52:42.989Z,98746.28
2023-09-02T13:55:11.064Z,98741.41
2023-09-02T13:57:38.065Z,98745.63
2023-09-02T14:00:16.533Z,98751.72
2023-09-02T14:02:43.385Z,98758.72
2023-09-02T14:05:18.977Z,98744.94
2023-09-02T14:07:45.870Z,98753.69
2023-09-02T14:10:12.991Z,98748.53
2023-09-02T14:12:40.154Z,98755.75
2023-09-02T14:15:07.317Z,98755.03
2023-09-02T14:17:33.799Z,98748.44
2023-09-02T14:20:00.393Z,98751.00
2023-09-02T14:22:28.092Z,98746.81
2023-09-02T14:24:54.584Z,98743.94
2023-09-02T14:27:21.861Z,98754.72
2023-09-02T14:29:48.519Z,98750.34
2023-09-02T14:32:15.120Z,98742.19
2023-09-02T14:34:43.071Z,98747.69
2023-09-02T14:37:09.742Z,98743.72
2023-09-02T14:39:37.114Z,98742.25
2023-09-02T14:42:04.133Z,98743.13
2023-09-02T14:44:32.067Z,98736.66
2023-09-02T14:47:01.858Z,98743.56
2023-09-02T14:49:29.756Z,98742.94
2023-09-02T14:52:02.010Z,98736.97
2023-09-02T14:54:32.652Z,98732.75
2023-09-02T14:57:00.228Z,98732.75
2023-09-02T14:59:28.656Z,98732.34
2023-09-02T15:01:56.344Z,98726.78
2023-09-02T15:04:22.962Z,98726.38
2023-09-02T15:06:49.755Z,98722.78
2023-09-02T15:09:30.453Z,98718.78
2023-09-02T15:11:57.431Z,98717.53
2023-09-02T15:14:27.946Z,98719.97
2023-09-02T15:16:55.904Z,98719.94
2023-09-02T15:19:24.550Z,98719.34
2023-09-02T15:21:51.248Z,98716.94
2023-09-02T15:24:28.347Z,98714.63
2023-09-02T15:26:54.849Z,98727.22
2023-09-02T15:29:24.592Z,98727.28
2023-09-02T15:31:52.953Z,98719.03
2023-09-02T15:34:21.093Z,98716.53
2023-09-02T15:36:48.109Z,98718.22
2023-09-02T15:39:25.097Z,98716.78
2023-09-02T15:41:52.008Z,98715.19
2023-09-02T15:44:18.518Z,98711.28
2023-09-02T15:46:45.333Z,98717.19
2023-09-02T15:49:11.915Z,98717.84
2023-09-02T15:51:39.659Z,98720.53
2023-09-02T15:54:06.413Z,98718.34
2023-09-02T15:56:33.155Z,98713.66
2023-09-02T15:58:59.671Z,98719.72
2023-09-02T16:01:26.324Z,98721.06
2023-09-02T16:03:52.922Z,98707.75
2023-09-02T16:06:19.412Z,98709.22
2023-09-02T16:08:45.951Z,98710.63
2023-09-02T16:11:12.465Z,98712.19
2023-09-02T16:13:39.004Z,98715.41
2023-09-02T16:16:05.651Z,98714.81
2023-09-02T16:18:33.441Z,98721.13
2023-09-02T16:20:59.991Z,98715.03
2023-09-02T16:23:26.881Z,98706.75
2023-09-02T16:25:53.461Z,98714.84
2023-09-02T16:28:19.958Z,98713.88
2023-09-02T16:30:46.890Z,98718.16
2023-09-02T16:33:13.476Z,98722.03
2023-09-02T16:35:40.152Z,98720.59
2023-09-02T16:38:06.670Z,98723.16
2023-09-02T16:40:33.166Z,98717.47
2023-09-02T16:43:00.025Z,98724.69
2023-09-02T16:45:28.328Z,98720.22
2023-09-02T16:47:56.465Z,98728.00
2023-09-02T16:50:23.520Z,98718.72
2023-09-02T16:52:52.405Z,98720.22
2023-09-02T16:55:20.558Z,98728.25
2023-09-02T16:57:50.473Z,98732.69
2023-09-02T17:00:18.979Z,98732.19
2023-09-02T17:02:49.253Z,98732.09
2023-09-02T17:05:21.749Z,98732.19
2023-09-02T17:07:48.881Z,98742.72
2023-09-02T17:10:24.982Z,98743.63
2023-09-02T17:12:52.829Z,98738.91
2023-09-02T17:15:22.072Z,98750.94
2023-09-02T17:17:53.255Z,98751.38
2023-09-02T17:20:29.288Z,98755.31
2023-09-02T17:22:57.708Z,98761.19
2023-09-02T17:25:24.288Z,98759.59
2023-09-02T17:27:55.551Z,98761.41
2023-09-02T17:30:23.484Z,98755.19
2023-09-02T17:32:50.412Z,98761.81
2023-09-02T17:35:17.282Z,98752.59
2023-09-02T17:37:44.231Z,98755.50
2023-09-02T17:40:11.771Z,98764.69
2023-09-02T17:42:45.186Z,98767.31
2023-09-02T17:45:13.541Z,98771.44
2023-09-02T17:47:40.600Z,98779.50
2023-09-02T17:50:12.470Z,98780.38
2023-09-02T17:52:39.941Z,98794.19
2023-09-02T17:55:07.467Z,98789.78
2023-09-02T17:57:35.770Z,98797.31
2023-09-02T18:00:06.686Z,98798.91
2023-09-02T18:02:33.658Z,98797.78
2023-09-02T18:05:02.353Z,98805.34
2023-09-02T18:07:29.118Z,98804.38
2023-09-02T18:09:55.699Z,98807.50
2023-09-02T18:12:22.967Z,98806.84
2023-09-02T18:14:49.665Z,98815.06
2023-09-02T18:17:16.225Z,98818.72
2023-09-02T18:19:43.187Z,98824.06
2023-09-02T18:22:10.305Z,98830.00
2023-09-02T18:24:37.822Z,98829.81
2023-09-02T18:27:06.079Z,98834.66
2023-09-02T18:29:33.535Z,98836.31
2023-09-02T18:32:00.669Z,98832.06
2023-09-02T18:34:27.511Z,98828.09
2023-09-02T18:36:54.133Z,98839.31
2023-09-02T18:39:25.139Z,98837.13
2023-09-02T18:41:52.610Z,98837.91
2023-09-02T18:44:20.035Z,98839.84
2023-09-02T18:46:47.874Z,98838.25
2023-09-02T18:49:15.131Z,98851.06
2023-09-02T18:51:42.003Z,98860.63
2023-09-02T18:54:10.709Z,98869.25
2023-09-02T18:56:37.785Z,98878.56
2023-09-02T18:59:04.880Z,98887.41
2023-09-02T19:01:34.855Z,98883.97
2023-09-02T19:04:02.551Z,98888.22
2023-09-02T19:06:30.905Z,98879.47
2023-09-02T19:08:57.541Z,98892.81
2023-09-02T19:11:24.195Z,98887.75
2023-09-02T19:13:50.716Z,98884.56
2023-09-02T19:16:18.175Z,98893.75
2023-09-02T19:18:45.145Z,98890.06
2023-09-02T19:21:11.718Z,98890.06
2023-09-02T19:23:38.287Z,98896.50
2023-09-02T19:26:04.948Z,98902.94
2023-09-02T19:28:32.493Z,98897.41
2023-09-02T19:31:02.143Z,98899.25
2023-09-02T19:33:28.901Z,98901.91
2023-09-02T19:35:56.091Z,98894.19
2023-09-02T19:38:22.722Z,98903.50
2023-09-02T19:40:49.353Z,98900.72
2023-09-02T19:43:16.088Z,98907.75
2023-09-02T19:45:43.843Z,98908.06
2023-09-02T19:48:10.512Z,98911.56
2023-09-02T19:50:44.286Z,98903.69
2023-09-02T19:53:12.012Z,98901.63
2023-09-02T19:55:45.081Z,98904.78
2023-09-02T19:58:11.790Z,98915.91
2023-09-02T20:00:42.776Z,98919.41
2023-09-02T20:03:09.649Z,98923.28
2023-09-02T20:05:36.231Z,98935.63
2023-09-02T20:08:02.817Z,98934.75
2023-09-02T20:10:29.392Z,98943.34
2023-09-02T20:12:55.921Z,98942.63
2023-09-02T20:15:22.422Z,98946.81
2023-09-02T20:17:49.120Z,98959.53
2023-09-02T20:20:15.726Z,98952.13
2023-09-02T20:22:42.250Z,98959.72
2023-09-02T20:25:09.033Z,98955.66
2023-09-02T20:27:35.559Z,98956.94
2023-09-02T20:30:02.113Z,98957.09
2023-09-02T20:32:28.640Z,98956.53
2023-09-02T20:34:55.232Z,98964.16
2023-09-02T20:37:21.808Z,98953.31
2023-09-02T20:39:48.291Z,98959.16
2023-09-02T20:42:14.970Z,98956.72
2023-09-02T20:44:41.631Z,98952.38
2023-09-02T20:47:08.186Z,98957.22
2023-09-02T20:49:34.715Z,98963.81
2023-09-02T20:52:02.444Z,98956.22
2023-09-02T20:54:30.302Z,98961.22
2023-09-02T20:56:57.040Z,98967.03
2023-09-02T20:59:23.997Z,98968.16
2023-09-02T21:01:50.508Z,98976.06
2023-09-02T21:04:18.259Z,98975.59
2023-09-02T21:06:45.015Z,98969.34
2023-09-02T21:09:11.732Z,98976.44
2023-09-02T21:11:38.347Z,98969.13
2023-09-02T21:14:04.910Z,98978.47
2023-09-02T21:16:31.394Z,98976.38
2023-09-02T21:18:57.929Z,98976.38
2023-09-02T21:21:24.599Z,98980.41
2023-09-02T21:23:51.754Z,98972.19
2023-09-02T21:26:18.440Z,98977.69
2023-09-02T21:28:50.961Z,98976.22
2023-09-02T21:31:18.400Z,98976.56
2023-09-02T21:33:45.453Z,98971.38
2023-09-02T21:36:19.226Z,98973.31
2023-09-02T21:38:50.002Z,98984.41
2023-09-02T21:41:16.896Z,98984.56
2023-09-02T21:43:43.986Z,98991.19
2023-09-02T21:46:12.309Z,98990.22
2023-09-02T21:48:40.120Z,98990.47
2023-09-02T21:51:10.680Z,98992.47
2023-09-02T21:53:41.799Z,98991.47
2023-09-02T21:56:09.585Z,98993.38
2023-09-02T21:58:36.206Z,98994.19
2023-09-02T22:01:05.022Z,99000.94
2023-09-02T22:03:32.910Z,98999.13
2023-09-02T22:06:09.347Z,99002.38
2023-09-02T22:08:37.364Z,98995.47
2023-09-02T22:11:04.714Z,98995.81
2023-09-02T22:13:31.932Z,99001.00
2023-09-02T22:15:58.743Z,99006.50
2023-09-02T22:18:27.256Z,99006.69
2023-09-02T22:20:57.905Z,99007.44
2023-09-02T22:23:27.779Z,99012.78
2023-09-02T22:26:04.962Z,99019.69
2023-09-02T22:28:32.819Z,99011.19
2023-09-02T22:30:59.737Z,99011.06
2023-09-02T22:33:28.409Z,99013.63
2023-09-02T22:35:55.113Z,99013.41
2023-09-02T22:38:28.886Z,99007.81
2023-09-02T22:41:04.914Z,99004.78
2023-09-02T22:43:31.618Z,99007.75
2023-09-02T22:45:58.511Z,99011.69
2023-09-02T22:48:25.450Z,99017.72
2023-09-02T22:50:52.360Z,99027.06
2023-09-02T22:53:20.227Z,99018.91
2023-09-02T22:55:47.435Z,99027.41
2023-09-02T22:58:14.842Z,99028.50
2023-09-02T23:00:41.982Z,99023.91
2023-09-02T23:03:08.822Z,99016.09
2023-09-02T23:05:35.730Z,99022.84
2023-09-02T23:08:03.805Z,99024.81
2023-09-02T23:10:33.871Z,99027.00
2023-09-02T23:13:01.318Z,99023.00
2023-09-02T23:15:28.017Z,99026.25
2023-09-02T23:17:55.017Z,99024.84
2023-09-02T23:20:21.910Z,99031.59
2023-09-02T23:22:49.699Z,99035.91
2023-09-02T23:25:16.294Z,99044.94
2023-09-02T23:27:48.145Z,99041.63
2023-09-02T23:30:14.994Z,99044.94
2023-09-02T23:32:41.519Z,99048.38
2023-09-02T23:35:09.168Z,99040.97
2023-09-02T23:37:35.928Z,99044.66
2023-09-02T23:40:02.579Z,99045.34
2023-09-02T23:42:29.142Z,99042.50
2023-09-02T23:44:55.683Z,99047.34
2023-09-02T23:47:22.190Z,99054.38
2023-09-02T23:49:50.760Z,99062.16
2023-09-02T23:52:17.356Z,99051.44
2023-09-02T23:54:43.932Z,99057.53
2023-09-02T23:57:10.564Z,99066.00
2023-09-02T23:59:37.104Z,99057.91
